Time;durP1;ratioP1;P1;durP2;ratioP2;P2;SDS_P1;SDS_P2;PMS_P1;PMS_P2;Temp;Humidity;BMP_temperature;BMP_pressure;BME280_temperature;BME280_humidity;BME280_pressure;Samples;Min_cycle;Max_cycle;Signal;HPM_P1;HPM_P2
2021/01/28 00:00:00;;;;;;;7.07;5.93;;;;;;;-0.44;77.23;99015.25;1663215;83;21149;-89
2021/01/28 00:02:27;;;;;;;6.60;5.60;;;;;;;-0.57;77.49;99010.87;1711106;83;21180;-87
2021/01/28 00:04:54;;;;;;;6.37;5.87;;;;;;;-0.63;77.63;99012.30;1721528;83;21241;-88
2021/01/28 00:07:23;;;;;;;9.63;7.00;;;;;;;-0.69;78.02;99008.97;1694308;81;21283;-89
2021/01/28 00:09:53;;;;;;;6.10;5.50;;;;;;;-0.69;78.06;99005.05;1721820;83;21172;-90
2021/01/28 00:12:21;;;;;;;5.47;4.97;;;;;;;-0.68;78.18;99002.28;1709162;83;21411;-87
2021/01/28 00:14:50;;;;;;;6.90;5.93;;;;;;;-0.63;77.99;98992.66;1706757;83;21177;-88
2021/01/28 00:17:17;;;;;;;6.87;6.20;;;;;;;-0.66;77.99;98991.18;1713093;83;21130;-88
2021/01/28 00:19:44;;;;;;;9.37;6.00;;;;;;;-0.58;77.64;98999.59;1710151;83;21153;-87
2021/01/28 00:22:15;;;;;;;7.57;5.53;;;;;;;-0.55;77.74;99002.38;1706925;81;21138;-88
2021/01/28 00:24:42;;;;;;;6.27;5.53;;;;;;;-0.54;77.45;99000.12;1692852;81;21197;-89
2021/01/28 00:27:11;;;;;;;10.27;6.23;;;;;;;-0.51;77.25;98997.18;1681542;83;21154;-88
2021/01/28 00:29:38;;;;;;;8.20;6.27;;;;;;;-0.57;77.42;98997.30;1674372;84;21323;-83
2021/01/28 00:32:07;;;;;;;9.63;7.00;;;;;;;-0.51;77.44;98998.02;1675802;84;21163;-84
2021/01/28 00:34:35;;;;;;;5.27;4.13;;;;;;;-0.49;77.42;99001.78;1689516;83;21314;-85
2021/01/28 00:37:02;;;;;;;6.77;5.60;;;;;;;-0.37;76.96;98997.97;1696462;83;21340;-85
2021/01/28 00:39:32;;;;;;;8.63;5.60;;;;;;;-0.36;76.58;99000.09;1694474;84;21212;-88
2021/01/28 00:41:59;;;;;;;7.60;6.23;;;;;;;-0.50;76.70;98990.49;1701069;84;21596;-85
2021/01/28 00:44:26;;;;;;;8.13;6.37;;;;;;;-0.55;76.91;98967.05;1689674;83;21579;-86
2021/01/28 00:46:55;;;;;;;9.90;7.00;;;;;;;-0.61;77.04;98969.28;1692508;84;21635;-86
2021/01/28 00:49:23;;;;;;;6.03;5.43;;;;;;;-0.63;77.10;98950.30;1687648;84;21694;-86
2021/01/28 00:51:49;;;;;;;;;;;;;;;-0.59;77.07;98968.65;1680339;84;21167;-88
2021/01/28 00:54:16;;;;;;;11.30;6.90;;;;;;;-0.59;77.07;98973.06;1666336;83;20179;-88
2021/01/28 00:56:43;;;;;;;;;;;;;;;-0.57;77.14;98972.43;1663751;85;21043;-88
2021/01/28 00:59:13;;;;;;;11.15;7.67;;;;;;;-0.56;76.88;98955.77;1693127;83;20198;-87
2021/01/28 01:01:41;;;;;;;8.43;6.63;;;;;;;-0.53;76.88;98946.78;1682108;84;21245;-87
2021/01/28 01:04:09;;;;;;;6.77;5.37;;;;;;;-0.57;76.83;98967.69;1680952;84;21230;-88
2021/01/28 01:06:36;;;;;;;6.20;5.60;;;;;;;-0.55;76.73;98973.09;1646475;84;21197;-88
2021/01/28 01:09:05;;;;;;;9.37;6.70;;;;;;;-0.55;76.75;98969.67;1666852;84;21335;-88
2021/01/28 01:12:04;;;;;;;8.80;8.00;;;;;;;-0.50;76.91;98955.16;1758366;78;29566;-87
2021/01/28 01:14:31;;;;;;;6.37;5.60;;;;;;;-0.31;76.28;98958.58;1697824;83;21288;-87
2021/01/28 01:16:59;;;;;;;8.93;6.73;;;;;;;-0.10;75.64;98958.23;1693561;83;21225;-86
2021/01/28 01:19:27;;;;;;;7.27;6.50;;;;;;;-0.15;75.39;98953.93;1682652;83;21351;-88
2021/01/28 01:21:56;;;;;;;10.40;6.20;;;;;;;-0.18;75.52;98945.91;1682821;83;21369;-86
2021/01/28 01:24:24;;;;;;;;;;;;;;;-0.17;75.32;98955.88;1701751;81;21238;-86
2021/01/28 01:26:51;;;;;;;8.28;6.40;;;;;;;-0.29;75.60;98950.08;1694700;83;20273;-87
2021/01/28 01:29:18;;;;;;;;;;;;;;;-0.36;75.74;98951.66;1698393;83;21235;-85
2021/01/28 01:31:57;;;;;;;6.80;5.03;;;;;;;-0.42;75.87;98952.59;1679986;84;20211;-87
2021/01/28 01:34:25;;;;;;;8.00;5.77;;;;;;;-0.49;75.98;98954.20;1681345;80;21021;-83
2021/01/28 01:36:56;;;;;;;8.27;6.60;;;;;;;-0.50;76.04;98938.64;1703120;81;21146;-87
2021/01/28 01:39:25;;;;;;;7.27;5.17;;;;;;;-0.49;76.08;98933.72;1693114;84;21304;-86
2021/01/28 01:41:53;;;;;;;7.77;6.50;;;;;;;-0.54;76.36;98928.14;1673850;83;21330;-89
2021/01/28 01:44:22;;;;;;;7.10;6.40;;;;;;;-0.47;76.16;98925.22;1698132;81;21152;-89
2021/01/28 01:46:58;;;;;;;9.10;6.67;;;;;;;-0.50;76.37;98925.55;1694356;80;21117;-87
2021/01/28 01:49:26;;;;;;;5.27;4.67;;;;;;;-0.43;76.31;98930.52;1722835;80;21621;-88
2021/01/28 01:51:54;;;;;;;8.33;6.53;;;;;;;-0.41;76.20;98933.30;1670168;85;21303;-86
2021/01/28 01:54:35;;;;;;;7.43;6.17;;;;;;;-0.40;76.05;98927.58;1690567;84;21204;-87
2021/01/28 01:57:10;;;;;;;8.47;6.97;;;;;;;-0.40;76.12;98924.95;1671196;84;21826;-86
2021/01/28 01:59:44;;;;;;;6.40;5.20;;;;;;;-0.36;76.06;98921.05;1691180;84;22125;-89
2021/01/28 02:02:31;;;;;;;7.17;6.43;;;;;;;-0.36;76.00;98905.84;1694278;83;21194;-89
2021/01/28 02:05:20;;;;;;;8.13;7.25;;;;;;;-0.40;75.86;98920.56;1679714;84;21187;-85
2021/01/28 02:07:53;;;;;;;7.70;6.83;;;;;;;-0.44;76.01;98919.20;1682194;83;21359;-87
2021/01/28 02:10:30;;;;;;;6.03;5.07;;;;;;;-0.38;76.16;98909.91;1773485;79;23117;-86
2021/01/28 02:13:09;;;;;;;7.77;5.93;;;;;;;-0.42;76.25;98891.06;1629535;83;21630;-87
2021/01/28 02:15:40;;;;;;;12.13;7.73;;;;;;;-0.36;75.98;98894.87;1706441;81;21139;-83
2021/01/28 02:18:08;;;;;;;6.60;5.77;;;;;;;-0.35;75.95;98898.33;1703130;81;21246;-90
2021/01/28 02:21:01;;;;;;;7.83;5.93;;;;;;;-0.32;75.88;98898.00;1701035;81;21159;-91
2021/01/28 02:23:42;;;;;;;6.93;5.73;;;;;;;-0.38;75.87;98899.94;1679898;82;21131;-88
2021/01/28 02:26:13;;;;;;;10.07;6.93;;;;;;;-0.40;75.89;98883.06;1678581;84;21302;-84
2021/01/28 02:28:40;;;;;;;6.93;5.50;;;;;;;-0.44;76.08;98877.81;1668820;84;21226;-85
2021/01/28 02:31:08;;;;;;;7.80;7.00;;;;;;;-0.41;76.03;98877.52;1679510;83;21219;-84
2021/01/28 02:33:50;;;;;;;9.37;7.13;;;;;;;-0.38;76.00;98885.04;1683329;84;21546;-85
2021/01/28 02:36:46;;;;;;;11.33;8.10;;;;;;;-0.37;75.92;98881.46;1898190;73;23017;-85
2021/01/28 02:39:32;;;;;;;7.13;6.20;;;;;;;-0.40;75.93;98863.43;1872985;74;21176;-84
2021/01/28 02:42:29;;;;;;;10.67;7.60;;;;;;;-0.46;76.07;98869.30;1875638;74;21232;-83
2021/01/28 02:44:57;;;;;;;9.50;8.10;;;;;;;-0.46;76.02;98863.56;1877582;74;21002;-84
2021/01/28 02:48:19;;;;;;;6.95;6.15;;;;;;;-0.46;76.08;98850.97;1779437;78;21289;-92
2021/01/28 02:51:05;;;;;;;10.00;8.23;;;;;;;-0.50;76.36;98851.76;1814222;78;21138;-85
2021/01/28 02:53:41;;;;;;;8.93;7.10;;;;;;;-0.43;76.21;98863.77;1775441;78;21195;-87
2021/01/28 02:56:10;;;;;;;10.80;7.80;;;;;;;-0.40;76.21;98881.76;1778236;78;21035;-87
2021/01/28 02:58:39;;;;;;;10.80;9.27;;;;;;;-0.34;75.83;98889.02;1775655;78;21151;-88
2021/01/28 03:01:09;;;;;;;13.03;8.47;;;;;;;-0.34;75.77;98896.03;1780477;79;21041;-87
2021/01/28 03:03:36;;;;;;;12.10;8.37;;;;;;;-0.34;75.80;98887.71;1774748;79;21328;-88
2021/01/28 03:06:05;;;;;;;11.77;8.60;;;;;;;-0.31;75.40;98883.95;1720126;81;21147;-87
2021/01/28 03:08:33;;;;;;;8.87;6.23;;;;;;;-0.29;75.23;98888.05;1765996;80;21293;-87
2021/01/28 03:11:09;;;;;;;9.70;8.47;;;;;;;-0.20;75.17;98882.38;1762367;78;23175;-87
2021/01/28 03:13:36;;;;;;;8.13;6.97;;;;;;;-0.21;75.07;98888.58;1652082;85;21349;-88
2021/01/28 03:16:12;;;;;;;12.87;8.97;;;;;;;-0.19;75.10;98882.70;1759717;79;23167;-87
2021/01/28 03:18:42;;;;;;;11.60;9.40;;;;;;;-0.21;74.99;98884.19;1725700;82;21318;-88
2021/01/28 03:21:13;;;;;;;12.63;8.47;;;;;;;-0.15;75.03;98884.06;1718443;82;21765;-87
2021/01/28 03:23:51;;;;;;;11.90;8.40;;;;;;;-0.18;74.88;98888.78;1665780;80;21328;-86
2021/01/28 03:27:07;;;;;;;13.57;8.30;;;;;;;-0.14;74.82;98875.70;1805419;78;23136;-88
2021/01/28 03:29:34;;;;;;;11.10;8.33;;;;;;;-0.21;74.91;98867.63;1767619;80;21348;-88
2021/01/28 03:32:02;;;;;;;11.10;9.13;;;;;;;-0.15;74.80;98875.36;1763630;79;21214;-88
2021/01/28 03:34:34;;;;;;;13.23;9.00;;;;;;;-0.12;74.60;98879.80;1734137;80;21734;-87
2021/01/28 03:37:02;;;;;;;12.43;8.90;;;;;;;-0.14;74.58;98880.95;1699846;82;21199;-88
2021/01/28 03:39:32;;;;;;;11.90;8.17;;;;;;;-0.16;74.69;98880.28;1687797;83;21192;-86
2021/01/28 03:41:59;;;;;;;13.97;9.57;;;;;;;-0.21;74.91;98865.02;1670799;84;21223;-86
2021/01/28 03:44:26;;;;;;;12.80;8.57;;;;;;;-0.21;75.00;98863.70;1693344;83;21113;-86
2021/01/28 03:46:57;;;;;;;9.97;8.30;;;;;;;-0.22;74.96;98861.59;1670967;84;21170;-96
2021/01/28 03:49:29;;;;;;;10.60;8.20;;;;;;;-0.23;75.04;98873.05;1639579;86;21439;-89
2021/01/28 03:51:58;;;;;;;9.83;6.93;;;;;;;-0.27;75.27;98870.88;1655291;85;21221;-88
2021/01/28 03:54:45;;;;;;;10.80;8.43;;;;;;;-0.24;75.26;98874.51;1644351;85;22218;-88
2021/01/28 03:57:14;;;;;;;12.77;9.73;;;;;;;-0.28;75.38;98871.38;1633722;85;21414;-88
2021/01/28 03:59:43;;;;;;;10.00;7.93;;;;;;;-0.26;75.23;98868.11;1647068;86;21220;-88
2021/01/28 04:02:15;;;;;;;12.10;9.63;;;;;;;-0.26;75.59;98869.42;1640401;86;21538;-88
2021/01/28 04:05:01;;;;;;;12.47;9.07;;;;;;;-0.24;75.34;98870.09;1645828;85;21227;-87
2021/01/28 04:07:31;;;;;;;11.50;9.23;;;;;;;-0.24;75.38;98876.62;1653533;84;21754;-86
2021/01/28 04:09:59;;;;;;;12.83;9.53;;;;;;;-0.23;75.48;98862.58;1662903;86;21230;-88
2021/01/28 04:12:30;;;;;;;9.00;8.10;;;;;;;-0.24;75.59;98862.23;1661120;85;21171;-88
2021/01/28 04:15:05;;;;;;;12.50;9.80;;;;;;;-0.24;75.63;98864.03;1644907;85;21243;-87
2021/01/28 04:17:34;;;;;;;12.33;9.33;;;;;;;-0.24;75.65;98875.82;1638863;85;21417;-86
2021/01/28 04:20:13;;;;;;;13.90;9.97;;;;;;;-0.27;75.71;98871.69;1689006;83;22190;-86
2021/01/28 04:22:40;;;;;;;11.53;10.10;;;;;;;-0.22;75.47;98879.10;1695640;83;21167;-88
2021/01/28 04:25:10;;;;;;;10.73;8.10;;;;;;;-0.16;75.40;98885.52;1675331;84;21247;-91
2021/01/28 04:27:38;;;;;;;10.23;8.77;;;;;;;-0.17;75.58;98869.45;1675864;84;21203;-91
2021/01/28 04:30:09;;;;;;;11.57;9.60;;;;;;;-0.17;75.43;98870.77;1677770;84;21709;-90
2021/01/28 04:32:39;;;;;;;11.03;9.17;;;;;;;-0.11;75.33;98876.22;1681600;84;21244;-91
2021/01/28 04:35:30;;;;;;;10.43;8.68;;;;;;;-0.14;75.33;98863.42;1659318;84;22199;-90
2021/01/28 04:37:58;;;;;;;14.50;10.57;;;;;;;-0.14;75.32;98854.25;1664540;86;21209;-91
2021/01/28 04:40:38;;;;;;;12.13;8.73;;;;;;;-0.13;75.34;98862.92;1652709;86;21215;-88
2021/01/28 04:43:27;;;;;;;11.20;9.10;;;;;;;-0.14;75.47;98858.68;1650633;85;21317;-87
2021/01/28 04:46:26;;;;;;;14.07;10.50;;;;;;;-0.07;75.42;98861.02;1729381;78;23434;-91
2021/01/28 04:48:56;;;;;;;11.87;9.97;;;;;;;-0.10;75.41;98859.51;1686023;83;21199;-91
2021/01/28 04:51:32;;;;;;;15.60;11.87;;;;;;;-0.08;75.22;98849.70;1677035;84;21169;-91
2021/01/28 04:54:30;;;;;;;12.33;9.80;;;;;;;-0.09;75.28;98855.11;1709711;82;21261;-89
2021/01/28 04:57:26;;;;;;;14.73;11.10;;;;;;;-0.06;75.45;98857.41;1799636;75;23008;-91
2021/01/28 04:59:55;;;;;;;13.73;10.17;;;;;;;-0.10;75.31;98856.08;1794593;77;21167;-89
2021/01/28 05:02:30;;;;;;;15.03;11.23;;;;;;;-0.17;75.39;98843.27;1757541;78;21066;-90
2021/01/28 05:05:14;;;;;;;11.10;8.38;;;;;;;-0.16;75.46;98855.40;1761729;79;21314;-90
2021/01/28 05:08:02;;;;;;;14.27;10.57;;;;;;;-0.21;75.61;98835.74;1745164;81;21235;-88
2021/01/28 05:10:57;;;;;;;19.27;12.97;;;;;;;-0.20;75.59;98828.70;1757215;80;21336;-90
2021/01/28 05:13:37;;;;;;;16.67;12.03;;;;;;;-0.49;75.74;98785.83;1721087;80;21207;-90
2021/01/28 05:16:49;;;;;;;15.60;12.33;;;;;;;-0.05;75.56;98821.08;1798292;78;23160;-88
2021/01/28 05:19:45;;;;;;;12.15;10.85;;;;;;;-0.05;75.42;98821.89;1761808;80;22747;-90
2021/01/28 05:23:00;;;;;;;15.80;12.00;;;;;;;0.04;74.92;98825.38;1785370;78;22998;-90
2021/01/28 05:25:41;;;;;;;16.40;12.57;;;;;;;-0.06;75.01;98827.28;1703027;81;21229;-94
2021/01/28 05:28:37;;;;;;;14.63;11.63;;;;;;;-0.09;75.27;98817.95;1703143;82;21197;-92
2021/01/28 05:31:31;;;;;;;18.37;12.80;;;;;;;-0.10;75.43;98825.45;1710203;82;21325;-89
2021/01/28 05:34:28;;;;;;;15.20;11.20;;;;;;;-0.11;76.28;98823.84;1719267;81;21111;-92
2021/01/28 05:37:28;;;;;;;14.57;9.17;;;;;;;-0.11;76.36;98822.53;1718425;83;21216;-92
2021/01/28 05:40:15;;;;;;;15.17;9.93;;;;;;;-0.26;76.80;98806.58;1724518;81;21577;-94
2021/01/28 05:43:00;;;;;;;14.60;11.20;;;;;;;-0.17;76.78;98817.08;1760509;79;23092;-92
2021/01/28 05:45:38;;;;;;;13.53;10.83;;;;;;;-0.27;76.92;98821.94;1752858;80;21122;-92
2021/01/28 05:48:49;;;;;;;18.23;14.10;;;;;;;-0.29;77.95;98819.97;1807305;77;25219;-92
2021/01/28 05:51:21;;;;;;;17.00;11.93;;;;;;;-0.25;78.09;98826.53;1782962;79;21148;-93
2021/01/28 05:54:00;;;;;;;14.43;10.70;;;;;;;-0.27;77.87;98825.87;1785235;79;21192;-91
2021/01/28 05:56:59;;;;;;;17.07;12.33;;;;;;;-0.34;78.20;98811.78;1764477;78;21106;-86
2021/01/28 06:00:01;;;;;;;19.30;14.27;;;;;;;-0.32;78.06;98808.52;1750284;81;21313;-84
2021/01/28 06:03:31;;;;;;;18.67;11.43;;;;;;;-0.22;77.72;98818.38;1745592;80;21216;-92
2021/01/28 06:07:18;;;;;;;14.17;10.63;;;;;;;-0.35;77.47;98819.79;1743310;80;21145;-95
2021/01/28 06:10:28;;;;;;;21.50;14.20;;;;;;;-0.29;77.77;98826.52;1755408;80;21200;-92
2021/01/28 06:14:04;;;;;;;16.37;10.97;;;;;;;-0.22;77.79;98838.02;1743802;80;28838;-87
2021/01/28 06:17:20;;;;;;;17.40;11.77;;;;;;;-0.30;77.64;98836.67;1677902;83;21184;-87
2021/01/28 06:20:34;;;;;;;17.43;13.50;;;;;;;-0.18;77.29;98822.00;1671493;84;21205;-88
2021/01/28 06:23:33;;;;;;;17.15;13.05;;;;;;;-0.12;76.99;98812.20;1636499;85;21188;-86
2021/01/28 06:26:32;;;;;;;18.60;12.60;;;;;;;-0.20;76.67;98813.80;1680275;84;21350;-89
2021/01/28 06:29:37;;;;;;;16.57;12.28;;;;;;;-0.21;76.76;98820.50;1689618;84;21254;-88
2021/01/28 06:32:40;;;;;;;19.77;12.50;;;;;;;-0.21;76.73;98816.56;1644138;85;21355;-90
2021/01/28 06:36:03;;;;;;;25.40;20.80;;;;;;;-0.32;77.10;98811.14;1681989;83;21320;-92
2021/01/28 06:39:32;;;;;;;21.73;15.17;;;;;;;-0.32;77.40;98809.83;1808867;78;23088;-88
2021/01/28 06:42:11;;;;;;;16.13;11.80;;;;;;;-0.31;77.12;98809.33;1726745;80;21223;-90
2021/01/28 06:45:11;;;;;;;19.23;13.93;;;;;;;-0.29;77.08;98812.11;1766875;80;21086;-88
2021/01/28 06:48:22;;;;;;;21.90;13.93;;;;;;;-0.32;77.15;98815.06;1730441;81;21156;-87
2021/01/28 06:51:52;;;;;;;17.63;13.30;;;;;;;-0.21;76.89;98805.63;1710111;82;21171;-92
2021/01/28 06:55:42;;;;;;;18.77;11.33;;;;;;;-0.20;77.13;98802.51;1586075;88;21238;-93
2021/01/28 06:58:59;;;;;;;19.43;12.83;;;;;;;-0.21;77.16;98811.33;1480606;93;21257;-87
2021/01/28 07:01:55;;;;;;;24.03;15.80;;;;;;;-0.17;76.71;98805.30;1524380;91;21170;-89
2021/01/28 07:05:11;;;;;;;21.80;14.43;;;;;;;-0.19;76.65;98806.75;1567349;89;21182;-86
2021/01/28 07:07:44;;;;;;;22.27;15.07;;;;;;;-0.27;77.01;98798.38;1541211;91;21361;-89
2021/01/28 07:10:49;;;;;;;24.90;16.07;;;;;;;-0.22;77.30;98788.76;1799066;79;23084;-87
2021/01/28 07:13:32;;;;;;;28.30;16.60;;;;;;;-0.22;77.25;98788.26;1777727;79;21634;-86
2021/01/28 07:16:40;;;;;;;18.37;14.33;;;;;;;-0.15;77.23;98770.13;1761242;79;23151;-91
2021/01/28 07:19:22;;;;;;;26.70;17.50;;;;;;;-0.08;77.17;98770.30;1726894;82;21169;-88
2021/01/28 07:22:02;;;;;;;21.73;13.80;;;;;;;-0.15;77.35;98773.22;1737784;82;21169;-91
2021/01/28 07:24:41;;;;;;;25.73;16.03;;;;;;;-0.07;77.38;98764.10;1735811;82;21200;-89
2021/01/28 07:27:10;;;;;;;26.67;17.10;;;;;;;-0.08;77.47;98759.83;1738166;80;21188;-86
2021/01/28 07:29:46;;;;;;;28.30;18.13;;;;;;;-0.09;77.60;98759.02;1730819;80;21160;-86
2021/01/28 07:32:29;;;;;;;33.10;18.77;;;;;;;-0.06;77.69;98764.41;1738601;80;21125;-90
2021/01/28 07:35:35;;;;;;;24.67;14.80;;;;;;;0.02;77.67;98774.94;1701711;82;21103;-86
2021/01/28 07:38:32;;;;;;;25.17;16.63;;;;;;;0.09;77.59;98778.54;1696861;83;21183;-86
2021/01/28 07:41:39;;;;;;;24.93;16.87;;;;;;;0.16;77.29;98782.66;1696614;83;21195;-85
2021/01/28 07:44:46;;;;;;;27.87;16.30;;;;;;;0.01;77.60;98777.71;1667446;81;21166;-88
2021/01/28 07:47:35;;;;;;;24.57;15.70;;;;;;;0.07;77.79;98778.38;1678588;84;21199;-85
2021/01/28 07:50:31;;;;;;;20.43;14.30;;;;;;;0.08;77.90;98778.22;1676528;84;21187;-86
2021/01/28 07:53:31;;;;;;;21.53;12.77;;;;;;;-0.01;78.16;98777.86;1655787;85;21342;-84
2021/01/28 07:55:58;;;;;;;17.23;12.30;;;;;;;0.07;78.07;98782.31;1648197;85;21097;-85
2021/01/28 07:58:33;;;;;;;18.37;10.23;;;;;;;0.12;77.93;98775.61;1652296;85;21713;-84
2021/01/28 08:01:11;;;;;;;20.63;13.37;;;;;;;0.01;78.10;98765.42;1621996;87;21125;-87
2021/01/28 08:04:05;;;;;;;18.70;12.67;;;;;;;0.02;78.32;98778.03;1634805;86;21193;-86
2021/01/28 08:06:33;;;;;;;20.43;12.67;;;;;;;0.09;78.22;98779.84;1630887;85;22305;-90
2021/01/28 08:09:14;;;;;;;19.27;12.80;;;;;;;0.12;78.56;98783.97;1628635;85;21193;-89
2021/01/28 08:11:51;;;;;;;16.17;10.53;;;;;;;0.08;78.61;98797.06;1623821;85;21106;-88
2021/01/28 08:14:29;;;;;;;14.73;10.43;;;;;;;0.05;78.89;98809.97;1647999;85;21175;-90
2021/01/28 08:16:56;;;;;;;16.27;10.53;;;;;;;0.21;78.72;98813.62;1620568;88;21334;-90
2021/01/28 08:19:27;;;;;;;14.07;10.13;;;;;;;0.26;78.16;98810.04;1620446;86;21323;-91
2021/01/28 08:22:15;;;;;;;17.07;12.73;;;;;;;0.20;78.30;98795.77;1586181;89;21212;-89
2021/01/28 08:24:58;;;;;;;18.37;10.93;;;;;;;0.17;78.46;98795.61;1575691;90;21692;-91
2021/01/28 08:27:31;;;;;;;21.50;13.17;;;;;;;0.25;77.86;98797.94;1586932;90;21835;-89
2021/01/28 08:30:16;;;;;;;13.70;10.63;;;;;;;0.22;78.04;98783.83;1617137;86;21247;-90
2021/01/28 08:32:46;;;;;;;12.70;9.30;;;;;;;0.14;78.73;98780.20;1589706;89;21748;-90
2021/01/28 08:35:18;;;;;;;16.23;10.20;;;;;;;0.24;78.88;98769.57;1630975;86;21298;-88
2021/01/28 08:37:46;;;;;;;16.00;11.57;;;;;;;0.37;78.30;98754.70;1590328;89;21235;-90
2021/01/28 08:40:19;;;;;;;13.87;10.27;;;;;;;0.39;77.84;98783.69;1597359;87;21720;-90
2021/01/28 08:42:49;;;;;;;16.40;11.03;;;;;;;0.34;77.91;98790.39;1589780;88;21666;-91
2021/01/28 08:45:25;;;;;;;14.33;10.70;;;;;;;0.28;77.99;98774.81;1619662;86;21584;-89
2021/01/28 08:48:05;;;;;;;14.60;10.82;;;;;;;0.43;78.04;98776.83;1610900;87;21373;-88
2021/01/28 08:50:35;;;;;;;11.93;8.70;;;;;;;0.49;77.41;98782.25;1634730;86;21319;-90
2021/01/28 08:53:17;;;;;;;12.97;7.07;;;;;;;0.39;77.70;98762.72;1631409;84;21227;-90
2021/01/28 08:55:46;;;;;;;12.43;8.50;;;;;;;0.33;77.96;98773.85;1635752;86;21130;-90
2021/01/28 08:58:28;;;;;;;16.87;11.10;;;;;;;0.41;77.85;98767.80;1625760;86;21244;-92
2021/01/28 09:01:05;;;;;;;13.07;10.47;;;;;;;0.51;77.69;98767.18;1628880;86;21280;-90
2021/01/28 09:04:04;;;;;;;18.70;9.50;;;;;;;0.49;77.86;98780.95;1633711;86;21208;-95
2021/01/28 21:27:19;;;;;;;3.50;3.20;;;;;;;0.30;75.83;98474.12;1684885;81;21365;-91
2021/01/28 21:30:12;;;;;;;3.27;3.07;;;;;;;0.33;75.37;98477.69;1659103;81;21140;-93
